createdAt,value
2018-09-08T00:01:26.429Z,70.90
2018-09-08T00:03:55.076Z,70.80
2018-09-08T00:06:29.028Z,70.80
2018-09-08T00:08:57.589Z,70.60
2018-09-08T00:11:26.316Z,70.80
2018-09-08T00:13:54.941Z,70.90
2018-09-08T00:16:28.969Z,71.20
2018-09-08T00:19:02.989Z,71.20
2018-09-08T00:21:36.909Z,71.20
2018-09-08T00:24:11.305Z,71.10
2018-09-08T00:26:39.810Z,71.20
2018-09-08T00:29:15.992Z,70.90
2018-09-08T00:31:44.700Z,71.00
2018-09-08T00:34:13.865Z,71.00
2018-09-08T00:36:42.500Z,71.10
2018-09-08T00:39:11.236Z,71.10
2018-09-08T00:41:39.893Z,71.70
2018-09-08T00:44:08.367Z,71.30
2018-09-08T00:46:36.947Z,71.60
2018-09-08T00:49:05.762Z,71.60
2018-09-08T00:51:34.349Z,71.70
2018-09-08T00:54:03.484Z,71.70
2018-09-08T00:56:32.392Z,71.80
2018-09-08T00:59:02.841Z,72.00
2018-09-08T01:01:32.052Z,72.20
2018-09-08T01:04:00.618Z,72.30
2018-09-08T01:06:29.248Z,72.30
2018-09-08T01:08:57.713Z,72.50
2018-09-08T01:11:26.280Z,72.70
2018-09-08T01:13:54.901Z,72.70
2018-09-08T01:16:23.364Z,72.90
2018-09-08T01:18:51.906Z,72.90
2018-09-08T01:21:20.502Z,73.00
2018-09-08T01:23:51.203Z,73.30
2018-09-08T01:26:20.528Z,73.10
2018-09-08T01:28:49.789Z,73.40
2018-09-08T01:31:18.587Z,73.30
2018-09-08T01:33:47.300Z,73.30
2018-09-08T01:36:15.880Z,73.30
2018-09-08T01:38:44.398Z,73.40
2018-09-08T01:41:12.984Z,73.60
2018-09-08T01:43:42.026Z,73.70
2018-09-08T01:46:10.573Z,73.70
2018-09-08T01:48:39.289Z,73.60
2018-09-08T01:51:08.330Z,73.90
2018-09-08T01:53:37.414Z,74.00
2018-09-08T01:56:05.941Z,74.30
2018-09-08T01:58:34.528Z,74.10
2018-09-08T02:01:03.122Z,74.10
2018-09-08T02:03:31.718Z,74.20
2018-09-08T02:06:00.674Z,74.30
2018-09-08T02:08:29.230Z,74.50
2018-09-08T02:10:57.736Z,74.70
2018-09-08T02:13:26.357Z,74.60
2018-09-08T02:15:54.905Z,74.60
2018-09-08T02:18:23.464Z,74.70
2018-09-08T02:20:52.139Z,74.60
2018-09-08T02:23:21.432Z,74.80
2018-09-08T02:25:50.002Z,74.70
2018-09-08T02:28:18.617Z,74.80
2018-09-08T02:30:47.208Z,74.90
2018-09-08T02:33:16.254Z,74.90
2018-09-08T02:35:44.846Z,75.00
2018-09-08T02:38:13.399Z,75.00
2018-09-08T02:40:41.922Z,75.20
2018-09-08T02:43:10.501Z,75.40
2018-09-08T02:45:39.023Z,75.40
2018-09-08T02:48:07.571Z,75.50
2018-09-08T02:50:39.775Z,75.50
2018-09-08T02:53:12.334Z,75.60
2018-09-08T02:55:40.080Z,75.70
2018-09-08T02:58:07.630Z,75.80
2018-09-08T03:00:35.067Z,75.60
2018-09-08T03:03:02.771Z,75.60
2018-09-08T03:05:30.206Z,75.80
2018-09-08T03:07:57.740Z,75.90
2018-09-08T03:10:25.128Z,75.80
2018-09-08T03:12:53.064Z,76.00
2018-09-08T03:15:20.447Z,76.10
2018-09-08T03:17:48.100Z,76.10
2018-09-08T03:20:15.473Z,76.40
2018-09-08T03:22:42.873Z,77.00
2018-09-08T03:25:10.425Z,76.60
2018-09-08T03:27:37.873Z,76.70
2018-09-08T03:30:05.281Z,76.80
2018-09-08T03:32:32.853Z,77.00
2018-09-08T03:35:00.384Z,77.20
2018-09-08T03:37:27.818Z,77.40
2018-09-08T03:39:55.202Z,77.50
2018-09-08T03:42:22.576Z,77.50
2018-09-08T03:44:50.025Z,77.60
2018-09-08T03:47:17.397Z,77.90
2018-09-08T03:49:44.761Z,77.90
2018-09-08T03:52:12.358Z,77.90
2018-09-08T03:54:39.829Z,78.00
2018-09-08T03:57:07.193Z,78.00
2018-09-08T03:59:34.622Z,78.30
2018-09-08T04:02:02.042Z,78.50
2018-09-08T04:04:30.604Z,78.70
2018-09-08T04:06:59.149Z,78.80
2018-09-08T04:09:27.698Z,79.10
2018-09-08T04:11:56.175Z,79.30
2018-09-08T04:14:24.750Z,79.40
2018-09-08T04:16:54.019Z,79.50
2018-09-08T04:19:22.744Z,79.70
2018-09-08T04:21:51.263Z,79.80
2018-09-08T04:24:19.848Z,79.90
2018-09-08T04:26:48.495Z,80.00
2018-09-08T04:29:16.979Z,80.00
2018-09-08T04:31:45.499Z,80.20
2018-09-08T04:34:14.010Z,80.30
2018-09-08T04:36:42.561Z,80.40
2018-09-08T04:39:11.769Z,80.40
2018-09-08T04:41:40.614Z,80.40
2018-09-08T04:44:09.868Z,80.40
2018-09-08T04:46:38.391Z,80.50
2018-09-08T04:49:07.448Z,80.60
2018-09-08T04:51:36.314Z,81.00
2018-09-08T04:54:04.968Z,81.10
2018-09-08T04:56:33.472Z,81.10
2018-09-08T04:59:02.090Z,81.20
2018-09-08T05:01:30.646Z,81.10
2018-09-08T05:03:59.189Z,81.30
2018-09-08T05:06:27.682Z,81.50
2018-09-08T05:08:56.340Z,81.60
2018-09-08T05:11:24.831Z,81.90
2018-09-08T05:13:53.466Z,82.00
2018-09-08T05:16:22.063Z,82.00
2018-09-08T05:18:50.798Z,82.10
2018-09-08T05:21:19.729Z,82.20
2018-09-08T05:23:48.311Z,82.40
2018-09-08T05:26:17.518Z,82.50
2018-09-08T05:28:46.140Z,82.60
2018-09-08T05:31:14.629Z,82.50
2018-09-08T05:33:43.194Z,82.40
2018-09-08T05:36:12.038Z,82.60
2018-09-08T05:38:40.703Z,83.10
2018-09-08T05:41:09.277Z,83.50
2018-09-08T05:43:37.916Z,83.80
2018-09-08T05:46:06.443Z,84.00
2018-09-08T05:48:34.997Z,83.80
2018-09-08T05:51:03.565Z,83.90
2018-09-08T05:53:32.092Z,84.30
2018-09-08T05:56:00.743Z,84.70
2018-09-08T05:58:29.467Z,84.70
2018-09-08T06:00:58.055Z,84.80
2018-09-08T06:03:26.739Z,84.80
2018-09-08T06:05:55.302Z,84.80
2018-09-08T06:08:23.795Z,84.90
2018-09-08T06:10:52.366Z,85.00
2018-09-08T06:13:20.819Z,85.40
2018-09-08T06:15:49.332Z,85.90
2018-09-08T06:18:17.951Z,86.30
2018-09-08T06:20:46.560Z,86.80
2018-09-08T06:23:15.146Z,87.60
2018-09-08T06:25:43.659Z,87.60
2018-09-08T06:28:12.232Z,88.00
2018-09-08T06:30:40.825Z,88.10
2018-09-08T06:33:11.748Z,87.50
2018-09-08T06:35:40.600Z,87.60
2018-09-08T06:38:12.155Z,87.40
2018-09-08T06:40:41.022Z,87.70
2018-09-08T06:43:09.572Z,88.30
2018-09-08T06:45:38.237Z,88.50
2018-09-08T06:48:07.286Z,88.70
2018-09-08T06:50:39.572Z,88.70
2018-09-08T06:53:09.019Z,88.70
2018-09-08T06:55:38.172Z,88.80
2018-09-08T06:58:09.599Z,88.70
2018-09-08T07:00:39.214Z,88.90
2018-09-08T07:03:09.819Z,90.40
2018-09-08T07:05:39.385Z,91.90
2018-09-08T07:08:07.940Z,91.90
2018-09-08T07:10:37.733Z,92.90
2018-09-08T07:13:06.244Z,93.00
2018-09-08T07:15:34.889Z,90.70
2018-09-08T07:18:03.452Z,89.60
2018-09-08T07:20:31.956Z,88.70
2018-09-08T07:23:00.429Z,88.70
2018-09-08T07:25:28.879Z,88.10
2018-09-08T07:27:57.399Z,88.10
2018-09-08T07:30:25.929Z,88.00
2018-09-08T07:32:54.409Z,88.20
2018-09-08T07:35:22.863Z,88.00
2018-09-08T07:37:51.386Z,88.10
2018-09-08T07:40:19.879Z,87.60
2018-09-08T07:42:48.371Z,87.70
2018-09-08T07:45:17.071Z,88.30
2018-09-08T07:47:45.601Z,88.10
2018-09-08T07:50:14.573Z,87.90
2018-09-08T07:52:43.073Z,88.30
2018-09-08T07:55:11.609Z,88.20
2018-09-08T07:57:40.297Z,88.00
2018-09-08T08:00:09.505Z,88.20
2018-09-08T08:02:38.011Z,87.40
2018-09-08T08:05:06.505Z,87.50
2018-09-08T08:07:35.150Z,87.20
2018-09-08T08:10:03.693Z,87.80
2018-09-08T08:12:32.299Z,89.20
2018-09-08T08:15:01.191Z,90.00
2018-09-08T08:17:29.678Z,90.20
2018-09-08T08:19:58.328Z,90.30
2018-09-08T08:22:26.876Z,90.10
2018-09-08T08:24:55.790Z,89.50
2018-09-08T08:27:24.441Z,89.30
2018-09-08T08:29:53.110Z,89.10
